createdAt,value
2023-05-05T00:00:34.664Z,164.61
2023-05-05T00:01:34.681Z,162.00
2023-05-05T00:02:34.787Z,160.88
2023-05-05T00:03:34.840Z,159.76
2023-05-05T00:04:34.800Z,161.40
2023-05-05T00:05:34.813Z,159.17
2023-05-05T00:06:34.861Z,164.04
2023-05-05T00:07:34.905Z,163.32
2023-05-05T00:08:34.936Z,160.54
2023-05-05T00:09:34.976Z,161.47
2023-05-05T00:10:35.011Z,161.38
2023-05-05T00:11:35.073Z,161.40
2023-05-05T00:12:35.081Z,157.38
2023-05-05T00:13:35.119Z,161.84
2023-05-05T00:14:35.163Z,161.28
2023-05-05T00:15:35.186Z,161.33
2023-05-05T00:16:35.377Z,161.82
2023-05-05T00:17:35.271Z,159.35
2023-05-05T00:18:35.314Z,160.83
2023-05-05T00:19:35.362Z,158.54
2023-05-05T00:20:35.380Z,158.12
2023-05-05T00:21:35.403Z,158.89
2023-05-05T00:22:35.441Z,158.76
2023-05-05T00:23:35.469Z,157.97
2023-05-05T00:24:35.507Z,158.63
2023-05-05T00:25:35.547Z,160.91
2023-05-05T00:26:35.581Z,153.03
2023-05-05T00:27:35.618Z,155.94
2023-05-05T00:28:35.656Z,156.60
2023-05-05T00:29:35.690Z,156.38
2023-05-05T00:30:35.732Z,156.49
2023-05-05T00:31:35.858Z,154.75
2023-05-05T00:32:35.850Z,154.36
2023-05-05T00:33:35.825Z,155.00
2023-05-05T00:34:35.828Z,153.42
2023-05-05T00:35:35.871Z,157.43
2023-05-05T00:36:35.910Z,155.61
2023-05-05T00:37:35.935Z,156.02
2023-05-05T00:38:35.954Z,155.92
2023-05-05T00:39:35.989Z,152.47
2023-05-05T00:40:35.983Z,154.28
2023-05-05T00:41:36.007Z,151.37
2023-05-05T00:42:36.027Z,154.08
2023-05-05T00:43:36.029Z,150.10
2023-05-05T00:44:36.059Z,153.59
2023-05-05T00:45:36.098Z,151.28
2023-05-05T00:46:36.188Z,150.11
2023-05-05T00:47:36.205Z,150.57
2023-05-05T00:48:36.197Z,150.49
2023-05-05T00:49:36.248Z,151.67
2023-05-05T00:50:36.242Z,151.58
2023-05-05T00:51:36.283Z,152.11
2023-05-05T00:52:36.323Z,150.98
2023-05-05T00:53:36.327Z,151.16
2023-05-05T00:54:36.396Z,148.19
2023-05-05T00:55:36.388Z,147.57
2023-05-05T00:56:36.422Z,148.42
2023-05-05T00:57:36.433Z,149.88
2023-05-05T00:58:36.462Z,149.86
2023-05-05T00:59:36.466Z,151.12
2023-05-05T01:00:36.503Z,147.73
2023-05-05T01:01:36.562Z,149.11
2023-05-05T01:02:36.620Z,147.22
2023-05-05T01:03:36.618Z,148.83
2023-05-05T01:04:36.609Z,149.30
2023-05-05T01:05:36.635Z,145.17
2023-05-05T01:06:36.658Z,145.05
2023-05-05T01:07:36.692Z,145.73
2023-05-05T01:08:36.709Z,148.95
2023-05-05T01:09:36.728Z,146.23
2023-05-05T01:10:36.768Z,146.12
2023-05-05T01:11:36.794Z,147.47
2023-05-05T01:12:36.847Z,149.59
2023-05-05T01:13:36.858Z,147.25
2023-05-05T01:14:36.875Z,144.80
2023-05-05T01:15:36.895Z,144.62
2023-05-05T01:16:36.962Z,144.77
2023-05-05T01:17:37.006Z,143.10
2023-05-05T01:18:37.017Z,145.79
2023-05-05T01:19:37.053Z,143.16
2023-05-05T01:20:37.088Z,143.37
2023-05-05T01:21:37.131Z,142.72
2023-05-05T01:22:37.158Z,145.81
2023-05-05T01:23:37.175Z,142.65
2023-05-05T01:24:37.217Z,142.04
2023-05-05T01:25:37.244Z,143.05
2023-05-05T01:26:37.274Z,145.11
2023-05-05T01:27:37.317Z,143.93
2023-05-05T01:28:37.351Z,141.82
2023-05-05T01:29:37.383Z,144.13
2023-05-05T01:30:37.412Z,141.93
2023-05-05T01:31:37.505Z,142.40
2023-05-05T01:32:37.528Z,142.19
2023-05-05T01:33:37.539Z,140.59
2023-05-05T01:34:37.574Z,143.48
2023-05-05T01:35:37.628Z,144.27
2023-05-05T01:36:37.659Z,140.87
2023-05-05T01:37:37.718Z,140.40
2023-05-05T01:38:37.757Z,141.88
2023-05-05T01:39:37.797Z,142.37
2023-05-05T01:40:37.844Z,142.97
2023-05-05T01:41:37.879Z,140.53
2023-05-05T01:42:37.929Z,140.13
2023-05-05T01:43:37.952Z,138.06
2023-05-05T01:44:38.004Z,138.89
2023-05-05T01:45:38.058Z,141.88
2023-05-05T01:46:38.076Z,139.25
2023-05-05T01:47:38.145Z,140.51
2023-05-05T01:48:38.921Z,140.73
2023-05-05T01:49:38.192Z,137.05
2023-05-05T01:50:38.228Z,137.77
2023-05-05T01:51:38.287Z,138.75
2023-05-05T01:52:38.304Z,137.96
2023-05-05T01:53:38.358Z,137.50
2023-05-05T01:54:38.391Z,138.10
2023-05-05T01:55:38.419Z,141.13
2023-05-05T01:56:38.436Z,137.50
2023-05-05T01:57:38.480Z,139.28
2023-05-05T01:58:38.493Z,135.99
2023-05-05T01:59:38.543Z,137.73
2023-05-05T02:00:38.580Z,136.47
2023-05-05T02:01:38.688Z,137.38
2023-05-05T02:02:38.750Z,136.28
2023-05-05T02:03:38.821Z,137.75
2023-05-05T02:04:38.716Z,138.54
2023-05-05T02:05:38.750Z,137.74
2023-05-05T02:06:38.814Z,136.08
2023-05-05T02:07:38.852Z,134.11
2023-05-05T02:08:38.888Z,136.07
2023-05-05T02:09:38.930Z,136.76
2023-05-05T02:10:38.953Z,135.22
2023-05-05T02:11:39.003Z,136.14
2023-05-05T02:12:39.052Z,136.49
2023-05-05T02:13:39.234Z,134.16
2023-05-05T02:14:39.092Z,137.11
2023-05-05T02:15:39.210Z,136.62
2023-05-05T02:16:39.172Z,136.26
2023-05-05T02:17:39.273Z,133.44
2023-05-05T02:18:39.250Z,136.98
2023-05-05T02:19:39.291Z,133.40
2023-05-05T02:20:39.325Z,135.03
2023-05-05T02:21:39.344Z,133.27
2023-05-05T02:22:39.394Z,135.38
2023-05-05T02:23:39.429Z,132.08
2023-05-05T02:24:39.453Z,132.28
2023-05-05T02:25:39.486Z,132.29
2023-05-05T02:26:39.522Z,135.54
2023-05-05T02:27:39.565Z,132.06
2023-05-05T02:28:39.614Z,129.71
2023-05-05T02:29:39.630Z,132.86
2023-05-05T02:30:39.681Z,129.61
2023-05-05T02:31:39.785Z,133.69
2023-05-05T02:32:39.801Z,131.32
2023-05-05T02:33:39.800Z,131.48
2023-05-05T02:34:39.821Z,129.59
2023-05-05T02:35:39.849Z,129.83
2023-05-05T02:36:39.882Z,129.45
2023-05-05T02:37:39.898Z,126.73
2023-05-05T02:38:39.938Z,129.64
2023-05-05T02:39:39.982Z,133.35
2023-05-05T02:40:40.023Z,129.79
2023-05-05T02:41:40.089Z,130.66
2023-05-05T02:42:40.161Z,129.40
2023-05-05T02:43:40.163Z,128.14
2023-05-05T02:44:40.210Z,128.91
2023-05-05T02:45:40.243Z,127.02
2023-05-05T02:46:40.346Z,131.86
2023-05-05T02:47:40.384Z,130.24
2023-05-05T02:48:40.370Z,127.74
2023-05-05T02:49:40.401Z,130.40
2023-05-05T02:50:40.462Z,126.15
2023-05-05T02:51:40.503Z,130.19
2023-05-05T02:52:40.548Z,127.87
2023-05-05T02:53:40.589Z,127.08
2023-05-05T02:54:40.629Z,127.79
2023-05-05T02:55:40.653Z,128.44
2023-05-05T02:56:40.698Z,128.76
2023-05-05T02:57:40.724Z,122.79
2023-05-05T02:58:40.754Z,125.34
2023-05-05T02:59:40.788Z,126.88
2023-05-05T03:00:40.806Z,124.35
2023-05-05T03:01:40.842Z,125.41
2023-05-05T03:02:40.903Z,122.58
2023-05-05T03:03:41.074Z,124.66
2023-05-05T03:04:40.962Z,123.05
2023-05-05T03:05:40.993Z,124.77
2023-05-05T03:06:41.043Z,125.85
2023-05-05T03:07:41.088Z,124.19
2023-05-05T03:08:41.107Z,123.54
2023-05-05T03:09:41.144Z,121.04
2023-05-05T03:10:41.179Z,119.89
2023-05-05T03:11:41.222Z,120.96
2023-05-05T03:12:41.326Z,120.91
2023-05-05T03:13:41.312Z,121.04
2023-05-05T03:14:41.340Z,122.37
2023-05-05T03:15:41.379Z,126.03
2023-05-05T03:16:41.555Z,123.77
2023-05-05T03:17:41.489Z,123.10
2023-05-05T03:18:41.464Z,122.16
2023-05-05T03:19:41.494Z,124.10
2023-05-05T03:20:41.520Z,121.74
2023-05-05T03:21:41.564Z,118.39
2023-05-05T03:22:41.593Z,120.92
2023-05-05T03:23:41.609Z,122.30
2023-05-05T03:24:41.658Z,119.37
2023-05-05T03:25:41.705Z,122.85
2023-05-05T03:26:41.743Z,120.53
2023-05-05T03:27:41.787Z,117.08
2023-05-05T03:28:41.811Z,120.50
2023-05-05T03:29:41.835Z,116.40
2023-05-05T03:30:41.864Z,120.28
2023-05-05T03:31:41.930Z,116.77
2023-05-05T03:32:41.949Z,121.12
2023-05-05T03:33:41.973Z,117.05
2023-05-05T03:34:42.016Z,118.47
2023-05-05T03:35:42.120Z,119.17
2023-05-05T03:36:42.088Z,116.93
2023-05-05T03:37:42.138Z,119.41
2023-05-05T03:38:42.165Z,114.71
2023-05-05T03:39:42.217Z,113.06
2023-05-05T03:40:44.548Z,114.94
2023-05-05T03:41:42.250Z,117.84
2023-05-05T03:42:42.225Z,119.36
2023-05-05T03:43:42.271Z,113.82
2023-05-05T03:44:42.196Z,115.20
2023-05-05T03:45:42.224Z,115.60
2023-05-05T03:46:42.175Z,113.62
2023-05-05T03:47:42.195Z,110.44
2023-05-05T03:48:42.138Z,110.60
2023-05-05T03:49:42.123Z,112.91
2023-05-05T03:50:42.120Z,115.45
2023-05-05T03:51:42.095Z,115.77
2023-05-05T03:52:42.087Z,115.03
2023-05-05T03:53:42.065Z,117.10
2023-05-05T03:54:42.063Z,115.73
2023-05-05T03:55:42.042Z,113.52
2023-05-05T03:56:42.020Z,118.04
2023-05-05T03:57:42.011Z,113.23
2023-05-05T03:58:41.982Z,115.50
2023-05-05T03:59:41.981Z,113.59
2023-05-05T04:00:41.965Z,113.39
2023-05-05T04:01:41.954Z,111.70
2023-05-05T04:02:42.051Z,112.33
2023-05-05T04:03:42.014Z,114.67
2023-05-05T04:04:41.909Z,111.46
2023-05-05T04:05:41.894Z,114.10
2023-05-05T04:06:41.888Z,110.10
2023-05-05T04:07:41.863Z,110.77
2023-05-05T04:08:41.841Z,108.64
2023-05-05T04:09:41.820Z,113.18
2023-05-05T04:10:41.805Z,110.59
2023-05-05T04:11:41.800Z,111.72
2023-05-05T04:12:41.835Z,112.07
2023-05-05T04:13:41.767Z,111.78
2023-05-05T04:14:41.763Z,108.18
2023-05-05T04:15:41.748Z,107.90
2023-05-05T04:16:41.708Z,110.59
2023-05-05T04:17:41.769Z,110.35
2023-05-05T04:18:41.674Z,110.75
2023-05-05T04:19:41.679Z,109.05
2023-05-05T04:20:41.716Z,109.06
2023-05-05T04:21:41.758Z,108.58
2023-05-05T04:22:42.054Z,107.76
2023-05-05T04:23:41.868Z,107.83
2023-05-05T04:24:41.915Z,109.33
2023-05-05T04:25:41.962Z,109.63
2023-05-05T04:26:42.008Z,107.28
2023-05-05T04:27:42.044Z,108.39
2023-05-05T04:28:42.093Z,108.76
2023-05-05T04:29:42.130Z,104.80
2023-05-05T04:30:42.201Z,107.29
2023-05-05T04:31:42.348Z,108.58
2023-05-05T04:32:42.287Z,110.63
2023-05-05T04:33:42.324Z,108.27
2023-05-05T04:34:42.329Z,103.91
2023-05-05T04:35:42.372Z,108.17
2023-05-05T04:36:42.437Z,108.75
2023-05-05T04:37:42.469Z,107.95
2023-05-05T04:38:42.529Z,104.86
2023-05-05T04:39:42.560Z,103.79
2023-05-05T04:40:42.609Z,106.01
2023-05-05T04:41:42.634Z,104.50
2023-05-05T04:42:42.678Z,105.19
2023-05-05T04:43:42.735Z,103.07
2023-05-05T04:44:42.770Z,106.62
2023-05-05T04:45:42.818Z,104.37
2023-05-05T04:46:42.887Z,106.33
2023-05-05T04:47:42.930Z,100.89
2023-05-05T04:48:42.954Z,104.34
2023-05-05T04:49:43.011Z,102.66
2023-05-05T04:50:43.042Z,102.89
2023-05-05T04:51:43.082Z,102.12
2023-05-05T04:52:43.169Z,100.86
2023-05-05T04:53:43.170Z,102.19
2023-05-05T04:54:43.224Z,101.47
2023-05-05T04:55:43.258Z,103.46
2023-05-05T04:56:43.303Z,101.05
2023-05-05T04:57:43.356Z,102.66
2023-05-05T04:58:43.406Z,100.86
2023-05-05T04:59:43.436Z,100.18
2023-05-05T05:00:43.489Z,105.14
2023-05-05T05:01:43.593Z,106.49
2023-05-05T05:02:43.684Z,106.24
2023-05-05T05:03:43.824Z,104.60
2023-05-05T05:04:43.681Z,113.61
2023-05-05T05:05:43.708Z,109.17
2023-05-05T05:06:43.730Z,111.64
2023-05-05T05:07:43.782Z,105.24
2023-05-05T05:08:43.814Z,109.52
2023-05-05T05:09:43.835Z,108.57
2023-05-05T05:10:43.896Z,112.86
2023-05-05T05:11:43.902Z,122.32
2023-05-05T05:12:43.905Z,120.56
2023-05-05T05:13:43.951Z,117.24
2023-05-05T05:14:43.888Z,125.02
2023-05-05T05:15:43.911Z,129.34
2023-05-05T05:16:43.991Z,125.26
2023-05-05T05:17:43.912Z,129.62
2023-05-05T05:18:43.910Z,131.52
2023-05-05T05:19:43.892Z,132.89
2023-05-05T05:20:43.916Z,142.33
2023-05-05T05:21:43.932Z,144.52
2023-05-05T05:22:43.945Z,149.50
2023-05-05T05:23:43.957Z,148.99
2023-05-05T05:24:44.011Z,145.45
2023-05-05T05:25:44.005Z,142.40
2023-05-05T05:26:44.015Z,133.58
2023-05-05T05:27:44.148Z,137.33
2023-05-05T05:28:44.578Z,128.70
2023-05-05T05:29:44.013Z,121.82
2023-05-05T05:30:44.016Z,116.01
2023-05-05T05:31:44.054Z,101.34
2023-05-05T05:32:44.049Z,104.48
2023-05-05T05:33:44.020Z,95.93
2023-05-05T05:34:44.025Z,90.49
2023-05-05T05:35:44.022Z,82.32
2023-05-05T05:36:44.037Z,76.30
2023-05-05T05:37:44.030Z,75.71
2023-05-05T05:38:44.037Z,74.25
2023-05-05T05:39:44.052Z,73.15
2023-05-05T05:40:44.073Z,68.52
2023-05-05T05:41:44.084Z,61.66
2023-05-05T05:42:44.092Z,58.49
2023-05-05T05:43:44.105Z,54.24
2023-05-05T05:44:44.122Z,55.08
2023-05-05T05:45:44.166Z,54.28
2023-05-05T05:46:44.118Z,53.85
2023-05-05T05:47:44.138Z,53.87
2023-05-05T05:48:44.081Z,53.99
2023-05-05T05:49:44.084Z,52.50
2023-05-05T05:50:44.051Z,50.03
2023-05-05T05:51:44.064Z,51.69
2023-05-05T05:52:44.037Z,52.34
2023-05-05T05:53:44.022Z,53.35
2023-05-05T05:54:44.027Z,51.06
2023-05-05T05:55:44.007Z,52.37
2023-05-05T05:56:44.028Z,47.40
2023-05-05T05:57:43.986Z,50.27
2023-05-05T05:58:43.968Z,41.99
2023-05-05T05:59:44.073Z,28.07
2023-05-05T06:00:43.931Z,24.45
2023-05-05T06:01:43.915Z,24.38
2023-05-05T06:02:43.980Z,25.00
2023-05-05T06:03:43.952Z,25.99
2023-05-05T06:04:43.924Z,26.72
2023-05-05T06:05:43.841Z,25.50
2023-05-05T06:06:43.832Z,34.91
2023-05-05T06:07:43.799Z,42.16
2023-05-05T06:08:43.781Z,54.16
2023-05-05T06:09:43.762Z,66.15
2023-05-05T06:10:43.770Z,76.40
2023-05-05T06:11:44.763Z,76.76
2023-05-05T06:12:43.746Z,78.83
2023-05-05T06:13:43.705Z,83.05
2023-05-05T06:14:43.667Z,90.69
2023-05-05T06:15:43.689Z,103.25
2023-05-05T06:16:43.632Z,111.72
2023-05-05T06:17:43.623Z,114.34
2023-05-05T06:18:43.578Z,118.79
2023-05-05T06:19:43.568Z,124.26
2023-05-05T06:20:43.626Z,125.87
2023-05-05T06:21:43.656Z,123.96
2023-05-05T06:22:43.721Z,125.98
2023-05-05T06:23:44.652Z,126.39
2023-05-05T06:24:43.613Z,127.94
2023-05-05T06:25:44.592Z,129.24
2023-05-05T06:26:43.610Z,132.52
2023-05-05T06:27:43.591Z,139.92
2023-05-05T06:28:43.584Z,137.96
2023-05-05T06:29:43.616Z,140.54
2023-05-05T06:30:43.547Z,148.35
2023-05-05T06:31:43.567Z,151.64
2023-05-05T06:32:43.544Z,155.58
2023-05-05T06:33:43.574Z,155.86
2023-05-05T06:34:43.487Z,156.92
2023-05-05T06:35:43.497Z,159.73
2023-05-05T06:36:43.521Z,163.65
2023-05-05T06:37:43.411Z,168.17
2023-05-05T06:38:43.398Z,170.74
2023-05-05T06:39:43.356Z,175.96
2023-05-05T06:40:43.345Z,174.84
2023-05-05T06:41:43.316Z,178.66
2023-05-05T06:42:43.364Z,181.18
2023-05-05T06:43:43.468Z,183.45
2023-05-05T06:44:43.422Z,187.12
2023-05-05T06:45:43.861Z,189.69
2023-05-05T06:46:43.614Z,189.78
2023-05-05T06:47:43.429Z,190.51
2023-05-05T06:48:44.387Z,190.01
2023-05-05T06:49:43.349Z,191.51
2023-05-05T06:50:43.369Z,192.16
2023-05-05T06:51:43.334Z,197.06
2023-05-05T06:52:43.336Z,199.85
2023-05-05T06:53:43.490Z,190.19
2023-05-05T06:54:43.341Z,192.12
2023-05-05T06:55:43.215Z,195.95
2023-05-05T06:56:43.210Z,202.36
2023-05-05T06:57:43.180Z,210.01
2023-05-05T06:58:43.164Z,211.56
2023-05-05T06:59:43.138Z,210.54
2023-05-05T07:00:43.185Z,211.71
2023-05-05T07:01:43.096Z,209.52
2023-05-05T07:02:44.145Z,209.75
2023-05-05T07:03:43.183Z,210.16
2023-05-05T07:04:43.043Z,209.78
2023-05-05T07:05:43.181Z,210.51
2023-05-05T07:06:43.030Z,209.86
2023-05-05T07:07:42.990Z,209.92
2023-05-05T07:08:42.965Z,213.70
2023-05-05T07:09:43.051Z,213.53
2023-05-05T07:10:42.925Z,212.24
2023-05-05T07:11:42.965Z,210.82
2023-05-05T07:12:43.031Z,212.42
2023-05-05T07:13:44.654Z,207.11
2023-05-05T07:14:43.059Z,208.98
2023-05-05T07:15:43.082Z,204.15
2023-05-05T07:16:43.159Z,204.46
2023-05-05T07:17:44.108Z,204.61
2023-05-05T07:18:43.102Z,206.17
2023-05-05T07:19:43.100Z,212.67
2023-05-05T07:20:47.703Z,205.52
2023-05-05T07:21:43.084Z,205.62
2023-05-05T07:22:43.060Z,209.24
2023-05-05T07:23:43.050Z,214.66
2023-05-05T07:24:43.034Z,220.89
2023-05-05T07:25:43.713Z,205.36
2023-05-05T07:26:42.989Z,207.42
2023-05-05T07:27:42.955Z,210.01
2023-05-05T07:28:42.969Z,216.63
2023-05-05T07:29:42.919Z,226.54
2023-05-05T07:30:44.565Z,220.42
2023-05-05T07:31:43.664Z,218.98
2023-05-05T07:32:42.867Z,218.05
2023-05-05T07:33:44.669Z,224.65
2023-05-05T07:34:42.804Z,224.81
2023-05-05T07:35:42.780Z,224.93
2023-05-05T07:36:42.764Z,225.10
2023-05-05T07:37:45.633Z,225.86
2023-05-05T07:38:43.164Z,225.05
2023-05-05T07:39:42.695Z,225.57
2023-05-05T07:40:42.670Z,224.75
2023-05-05T07:41:42.857Z,222.02
2023-05-05T07:42:42.607Z,219.33
2023-05-05T07:43:44.538Z,223.75
2023-05-05T07:44:42.571Z,219.89
2023-05-05T07:45:42.573Z,218.31
2023-05-05T07:46:42.517Z,220.96
2023-05-05T07:47:42.504Z,216.87
2023-05-05T07:48:42.487Z,216.69
2023-05-05T07:49:42.473Z,216.87
2023-05-05T07:50:44.157Z,216.25
2023-05-05T07:51:42.410Z,216.70
2023-05-05T07:52:46.795Z,213.51
2023-05-05T07:53:43.351Z,216.76
2023-05-05T07:54:43.143Z,217.11
2023-05-05T07:55:42.310Z,214.97
2023-05-05T07:56:44.175Z,217.48
2023-05-05T07:57:42.731Z,217.63
2023-05-05T07:58:42.259Z,216.39
2023-05-05T07:59:42.238Z,218.44
2023-05-05T08:00:45.064Z,218.38
2023-05-05T08:01:42.187Z,218.53
2023-05-05T08:02:44.218Z,218.78
2023-05-05T08:03:42.754Z,219.65
2023-05-05T08:04:42.269Z,220.41
2023-05-05T08:05:42.749Z,218.09
2023-05-05T08:06:43.197Z,218.51
2023-05-05T08:07:42.208Z,218.75
2023-05-05T08:08:49.159Z,219.01
2023-05-05T08:09:42.358Z,218.56
2023-05-05T08:10:42.187Z,218.56
2023-05-05T08:11:42.184Z,213.46
2023-05-05T08:12:42.219Z,212.59
2023-05-05T08:13:42.239Z,217.06
2023-05-05T08:14:42.160Z,215.27
2023-05-05T08:15:42.197Z,215.49
2023-05-05T08:16:42.131Z,216.28
2023-05-05T08:17:42.218Z,215.71
2023-05-05T08:18:46.656Z,206.09
2023-05-05T08:19:42.076Z,198.26
2023-05-05T08:20:42.051Z,182.95
2023-05-05T08:21:42.651Z,163.51
2023-05-05T08:22:42.096Z,153.90
2023-05-05T08:23:42.000Z,117.40
2023-05-05T08:24:41.988Z,80.79
2023-05-05T08:25:42.003Z,50.85
2023-05-05T08:26:41.936Z,43.88
2023-05-05T08:27:41.892Z,40.94
2023-05-05T08:28:41.877Z,49.98
2023-05-05T08:29:41.908Z,62.16
2023-05-05T08:30:42.013Z,77.30
2023-05-05T08:31:42.047Z,78.77
2023-05-05T08:32:41.864Z,85.07
2023-05-05T08:33:41.912Z,88.45
2023-05-05T08:34:41.765Z,93.70
2023-05-05T08:35:41.760Z,92.94
2023-05-05T08:36:41.799Z,95.59
2023-05-05T08:37:41.838Z,104.38
2023-05-05T08:38:41.891Z,106.65
2023-05-05T08:39:42.858Z,106.72
2023-05-05T08:40:41.855Z,102.70
2023-05-05T08:41:41.819Z,96.41
2023-05-05T08:42:42.207Z,96.89
2023-05-05T08:43:41.784Z,96.36
2023-05-05T08:44:41.755Z,103.40
2023-05-05T08:45:41.817Z,103.35
2023-05-05T08:46:41.729Z,106.92
2023-05-05T08:47:41.773Z,107.16
2023-05-05T08:48:41.680Z,107.47
2023-05-05T08:49:41.670Z,109.31
2023-05-05T08:50:41.641Z,113.47
2023-05-05T08:51:41.622Z,121.47
2023-05-05T08:52:41.716Z,132.92
2023-05-05T08:53:41.581Z,135.74
2023-05-05T08:54:41.573Z,135.97
2023-05-05T08:55:41.555Z,136.68
2023-05-05T08:56:43.211Z,138.93
2023-05-05T08:57:41.515Z,141.21
2023-05-05T08:58:41.509Z,149.57
2023-05-05T08:59:41.461Z,145.93
2023-05-05T09:00:41.513Z,147.60
2023-05-05T09:01:41.562Z,149.14
2023-05-05T09:02:41.563Z,153.06
2023-05-05T09:03:41.449Z,154.43
2023-05-05T09:04:41.494Z,151.64
2023-05-05T09:05:41.519Z,152.32
2023-05-05T09:06:41.580Z,155.99
2023-05-05T09:07:42.545Z,156.06
2023-05-05T09:08:41.533Z,156.35
2023-05-05T09:09:41.500Z,156.19
2023-05-05T09:10:41.485Z,156.20
2023-05-05T09:11:41.469Z,155.35
2023-05-05T09:12:41.499Z,151.58
2023-05-05T09:13:41.419Z,151.90
2023-05-05T09:14:41.463Z,152.76
2023-05-05T09:15:41.704Z,152.55
2023-05-05T09:16:41.474Z,136.32
2023-05-05T09:17:41.427Z,122.33
2023-05-05T09:18:41.402Z,123.76
2023-05-05T09:19:41.401Z,116.69
2023-05-05T09:20:41.393Z,106.27
2023-05-05T09:21:42.103Z,103.05
2023-05-05T09:22:43.221Z,100.90
2023-05-05T09:23:41.353Z,117.39
2023-05-05T09:24:41.313Z,126.32
2023-05-05T09:25:41.295Z,136.81
2023-05-05T09:26:41.330Z,140.24
2023-05-05T09:27:42.105Z,147.66
2023-05-05T09:28:42.109Z,148.80
2023-05-05T09:29:41.411Z,152.82
2023-05-05T09:30:41.510Z,153.18
2023-05-05T09:31:41.489Z,156.22
2023-05-05T09:32:41.551Z,158.20
2023-05-05T09:33:41.643Z,162.10
2023-05-05T09:34:41.602Z,167.95
2023-05-05T09:35:41.629Z,164.63
2023-05-05T09:36:41.679Z,160.85
2023-05-05T09:37:41.712Z,155.37
2023-05-05T09:38:41.753Z,153.64
2023-05-05T09:39:41.801Z,154.87
2023-05-05T09:40:41.941Z,160.33
2023-05-05T09:41:41.900Z,162.74
2023-05-05T09:42:41.925Z,166.42
2023-05-05T09:43:42.086Z,168.35
2023-05-05T09:44:42.025Z,170.38
2023-05-05T09:45:46.725Z,176.46
2023-05-05T09:46:42.688Z,176.48
2023-05-05T09:47:42.064Z,176.75
2023-05-05T09:48:42.015Z,175.99
2023-05-05T09:49:42.625Z,181.48
2023-05-05T09:50:42.704Z,184.76
2023-05-05T09:51:42.627Z,184.84
2023-05-05T09:52:41.995Z,187.07
2023-05-05T09:53:41.979Z,187.32
2023-05-05T09:54:41.924Z,191.07
2023-05-05T09:55:42.639Z,187.24
2023-05-05T09:56:41.915Z,191.41
2023-05-05T09:57:41.956Z,190.91
2023-05-05T09:58:42.078Z,185.83
2023-05-05T09:59:42.168Z,179.12
2023-05-05T10:00:42.094Z,180.45
2023-05-05T10:01:42.220Z,180.34
2023-05-05T10:02:42.221Z,178.78
2023-05-05T10:03:42.237Z,181.72
2023-05-05T10:04:42.303Z,183.96
2023-05-05T10:05:42.454Z,183.90
2023-05-05T10:06:42.349Z,188.25
2023-05-05T10:07:42.400Z,188.43
2023-05-05T10:08:42.434Z,190.49
2023-05-05T10:09:42.474Z,190.85
2023-05-05T10:10:42.525Z,191.31
2023-05-05T10:11:42.574Z,191.50
2023-05-05T10:12:42.683Z,192.90
2023-05-05T10:13:42.642Z,185.12
2023-05-05T10:14:42.721Z,175.49
2023-05-05T10:15:42.804Z,173.20
2023-05-05T10:16:42.876Z,179.59
2023-05-05T10:17:53.940Z,185.14
2023-05-05T10:18:43.886Z,185.30
2023-05-05T10:19:42.898Z,186.27
2023-05-05T10:20:42.770Z,180.98
2023-05-05T10:21:42.857Z,185.82
2023-05-05T10:22:43.714Z,184.35
2023-05-05T10:23:42.707Z,199.73
2023-05-05T10:24:42.695Z,200.57
2023-05-05T10:25:42.655Z,202.89
2023-05-05T10:26:42.642Z,201.75
2023-05-05T10:27:42.619Z,214.33
2023-05-05T10:28:42.620Z,212.67
2023-05-05T10:29:43.225Z,208.38
2023-05-05T10:30:42.699Z,212.91
2023-05-05T10:31:42.784Z,214.16
2023-05-05T10:33:42.804Z,218.06
2023-05-05T10:34:42.729Z,217.53
2023-05-05T10:35:42.692Z,218.52
2023-05-05T10:36:42.667Z,224.32
2023-05-05T10:37:42.764Z,220.96
2023-05-05T10:38:42.656Z,220.96
2023-05-05T10:39:42.613Z,222.23
2023-05-05T10:40:42.584Z,224.67
2023-05-05T10:41:42.619Z,233.39
2023-05-05T10:42:42.554Z,228.34
2023-05-05T10:43:42.556Z,229.48
2023-05-05T10:44:43.218Z,230.05
2023-05-05T10:45:42.548Z,231.54
2023-05-05T10:46:42.590Z,235.77
2023-05-05T10:47:42.515Z,240.27
2023-05-05T10:48:42.483Z,244.67
2023-05-05T10:49:42.404Z,247.09
2023-05-05T10:50:42.388Z,246.13
2023-05-05T10:51:42.365Z,241.42
2023-05-05T10:52:42.334Z,239.92
2023-05-05T10:53:42.973Z,237.15
2023-05-05T10:54:42.306Z,235.65
2023-05-05T10:55:42.265Z,231.35
2023-05-05T10:56:42.246Z,233.38
2023-05-05T10:57:42.236Z,239.95
2023-05-05T10:58:58.245Z,246.77
2023-05-05T10:59:43.242Z,247.13
2023-05-05T11:00:42.267Z,247.94
2023-05-05T11:01:42.284Z,246.91
2023-05-05T11:02:42.327Z,223.19
2023-05-05T11:03:42.419Z,221.72
2023-05-05T11:04:42.382Z,210.30
2023-05-05T11:05:42.438Z,197.85
2023-05-05T11:06:42.469Z,195.27
2023-05-05T11:07:42.579Z,203.53
2023-05-05T11:08:42.530Z,208.96
2023-05-05T11:09:42.625Z,222.14
2023-05-05T11:10:42.597Z,226.26
2023-05-05T11:11:42.639Z,231.41
2023-05-05T11:12:42.683Z,234.56
2023-05-05T11:13:42.725Z,236.96
2023-05-05T11:14:42.733Z,237.58
2023-05-05T11:15:42.760Z,234.91
2023-05-05T11:16:42.799Z,235.46
2023-05-05T11:17:42.859Z,231.93
2023-05-05T11:18:42.873Z,233.87
2023-05-05T11:19:42.895Z,236.36
2023-05-05T11:20:42.915Z,231.84
2023-05-05T11:21:42.958Z,231.56
2023-05-05T11:22:43.005Z,233.38
2023-05-05T11:23:43.032Z,232.71
2023-05-05T11:24:43.056Z,233.63
2023-05-05T11:25:43.152Z,232.49
2023-05-05T11:26:43.144Z,240.13
2023-05-05T11:27:43.156Z,240.64
2023-05-05T11:28:43.221Z,240.73
2023-05-05T11:29:43.230Z,240.76
2023-05-05T11:30:44.292Z,244.43
2023-05-05T11:31:43.286Z,245.05
2023-05-05T11:32:43.343Z,247.17
2023-05-05T11:33:43.352Z,248.21
2023-05-05T11:34:43.384Z,248.02
2023-05-05T11:35:43.416Z,245.05
2023-05-05T11:36:43.492Z,243.23
2023-05-05T11:37:43.480Z,240.63
2023-05-05T11:38:43.515Z,236.88
2023-05-05T11:39:44.256Z,240.69
2023-05-05T11:40:43.572Z,245.10
2023-05-05T11:41:43.656Z,242.02
2023-05-05T11:42:43.629Z,244.84
2023-05-05T11:43:43.654Z,243.80
2023-05-05T11:44:43.683Z,247.54
2023-05-05T11:45:43.711Z,249.41
2023-05-05T11:46:43.787Z,249.45
2023-05-05T11:47:43.798Z,248.26
2023-05-05T11:48:43.839Z,246.31
2023-05-05T11:49:43.856Z,243.50
2023-05-05T11:50:43.889Z,245.54
2023-05-05T11:51:43.919Z,249.58
2023-05-05T11:52:43.983Z,247.40
2023-05-05T11:53:43.991Z,244.84
2023-05-05T11:54:44.056Z,243.81
2023-05-05T11:55:44.053Z,245.65
2023-05-05T11:56:44.073Z,244.03
2023-05-05T11:57:44.180Z,244.84
2023-05-05T11:58:44.145Z,243.54
2023-05-05T11:59:44.173Z,243.16
2023-05-05T12:00:44.214Z,242.13
2023-05-05T12:01:44.233Z,239.95
2023-05-05T12:02:44.331Z,240.14
2023-05-05T12:03:44.488Z,242.93
2023-05-05T12:04:44.387Z,243.47
2023-05-05T12:05:44.380Z,244.97
2023-05-05T12:06:44.402Z,250.05
2023-05-05T12:07:44.432Z,248.47
2023-05-05T12:08:44.467Z,241.79
2023-05-05T12:09:44.534Z,232.16
2023-05-05T12:10:44.538Z,224.94
2023-05-05T12:11:44.568Z,223.24
2023-05-05T12:12:47.534Z,213.78
2023-05-05T12:13:44.576Z,208.66
2023-05-05T12:14:44.748Z,203.63
2023-05-05T12:15:44.533Z,206.73
2023-05-05T12:16:44.694Z,206.03
2023-05-05T12:17:44.469Z,196.18
2023-05-05T12:18:44.422Z,191.01
2023-05-05T12:19:44.591Z,182.47
2023-05-05T12:20:44.376Z,180.25
2023-05-05T12:21:44.334Z,188.79
2023-05-05T12:22:44.293Z,194.31
2023-05-05T12:23:44.275Z,196.95
2023-05-05T12:24:44.262Z,202.66
2023-05-05T12:25:44.194Z,203.65
2023-05-05T12:26:44.164Z,206.25
2023-05-05T12:27:44.133Z,208.51
2023-05-05T12:28:44.160Z,210.06
2023-05-05T12:29:44.065Z,210.19
2023-05-05T12:30:44.065Z,210.71
2023-05-05T12:31:44.017Z,209.48